Time;durP1;ratioP1;P1;durP2;ratioP2;P2;SDS_P1;SDS_P2;PMS_P1;PMS_P2;Temp;Humidity;BMP_temperature;BMP_pressure;BME280_temperature;BME280_humidity;BME280_pressure;Samples;Min_cycle;Max_cycle;Signal;HPM_P1;HPM_P2
2023/08/07 00:00:31;;;;;;;3.55;0.60;;;15.90;88.40;;;;;;5047962;28;20564;-64
2023/08/07 00:03:00;;;;;;;0.47;0.47;;;15.80;88.30;;;;;;5047527;28;20025;-64
2023/08/07 00:05:25;;;;;;;0.30;0.30;;;15.90;88.40;;;;;;5028013;28;20107;-64
2023/08/07 00:07:51;;;;;;;0.52;0.40;;;15.80;88.30;;;;;;5039635;28;20021;-65
2023/08/07 00:10:17;;;;;;;1.10;0.55;;;15.90;88.30;;;;;;5039505;28;20468;-65
2023/08/07 00:12:43;;;;;;;0.32;0.30;;;15.90;88.30;;;;;;5042071;28;20030;-65
2023/08/07 00:15:10;;;;;;;0.30;0.30;;;15.90;88.30;;;;;;5038632;28;20067;-65
2023/08/07 00:17:36;;;;;;;1.33;0.22;;;15.90;88.30;;;;;;5041387;28;20033;-65
2023/08/07 00:20:04;;;;;;;0.82;0.40;;;15.90;88.30;;;;;;5048378;28;20048;-65
2023/08/07 00:22:29;;;;;;;1.75;0.20;;;15.80;88.20;;;;;;5036613;28;20108;-65
2023/08/07 00:24:55;;;;;;;0.35;0.30;;;15.90;88.40;;;;;;5042266;28;20587;-64
2023/08/07 00:27:21;;;;;;;0.30;0.20;;;15.90;88.30;;;;;;5040517;28;20399;-65
2023/08/07 00:29:46;;;;;;;2.30;0.60;;;15.80;88.20;;;;;;5043666;28;20132;-66
2023/08/07 00:32:12;;;;;;;0.75;0.22;;;15.90;88.30;;;;;;5042765;28;20033;-66
2023/08/07 00:34:38;;;;;;;0.85;0.65;;;15.90;88.20;;;;;;5048614;28;20025;-66
2023/08/07 00:37:04;;;;;;;2.60;0.43;;;15.80;88.20;;;;;;5038765;28;20397;-66
2023/08/07 00:39:29;;;;;;;5.97;0.52;;;15.80;88.90;;;;;;5041480;28;20043;-65
2023/08/07 00:41:55;;;;;;;0.35;0.30;;;15.70;88.40;;;;;;5038430;28;20032;-66
2023/08/07 00:44:21;;;;;;;1.00;0.70;;;15.80;88.50;;;;;;5042040;28;20395;-64
2023/08/07 00:46:47;;;;;;;0.73;0.50;;;15.70;88.60;;;;;;5044904;28;20116;-66
2023/08/07 00:49:13;;;;;;;0.55;0.40;;;15.70;88.70;;;;;;5052531;28;20407;-64
2023/08/07 00:51:39;;;;;;;0.65;0.30;;;15.70;88.80;;;;;;5041655;28;20036;-66
2023/08/07 00:54:07;;;;;;;0.20;0.20;;;15.70;88.80;;;;;;5054600;28;20064;-65
2023/08/07 00:56:33;;;;;;;1.45;0.52;;;15.70;88.80;;;;;;5033781;28;20048;-65
2023/08/07 00:58:59;;;;;;;3.90;0.82;;;15.70;88.70;;;;;;5033015;28;20492;-65
2023/08/07 01:01:25;;;;;;;1.38;0.43;;;15.70;88.70;;;;;;5038249;28;20361;-65
2023/08/07 01:03:51;;;;;;;0.22;0.22;;;15.70;88.70;;;;;;5055801;28;20048;-65
2023/08/07 01:06:17;;;;;;;0.70;0.60;;;15.70;88.70;;;;;;5043603;28;20033;-65
2023/08/07 01:08:43;;;;;;;1.10;0.75;;;15.80;88.60;;;;;;5032596;28;20095;-66
2023/08/07 01:11:30;;;;;;;2.22;0.35;;;15.80;88.50;;;;;;5051184;28;20051;-65
2023/08/07 01:14:06;;;;;;;1.92;0.40;;;15.70;88.50;;;;;;5054670;28;20017;-65
2023/08/07 01:16:47;;;;;;;0.98;0.45;;;15.70;88.60;;;;;;5049891;28;20017;-66
2023/08/07 01:19:27;;;;;;;1.95;0.52;;;15.70;88.60;;;;;;5047475;28;20033;-66
2023/08/07 01:22:13;;;;;;;3.42;0.52;;;15.70;88.60;;;;;;5038847;28;20022;-65
2023/08/07 01:24:41;;;;;;;2.35;0.75;;;15.70;88.60;;;;;;5045914;28;20400;-65
2023/08/07 01:27:19;;;;;;;0.52;0.40;;;15.70;88.70;;;;;;5044105;28;20025;-66
2023/08/07 01:30:19;;;;;;;4.07;0.73;;;15.60;88.40;;;;;;5043915;28;20388;-65
2023/08/07 01:33:05;;;;;;;3.20;1.08;;;15.60;88.50;;;;;;5049407;28;20028;-64
2023/08/07 01:35:36;;;;;;;0.40;0.40;;;15.70;88.40;;;;;;5055328;28;20522;-66
2023/08/07 01:38:03;;;;;;;2.67;0.38;;;15.70;88.50;;;;;;5048436;28;20492;-64
2023/08/07 01:40:30;;;;;;;0.98;0.50;;;15.70;88.30;;;;;;5053461;28;20392;-64
2023/08/07 01:42:56;;;;;;;1.00;0.43;;;15.70;88.20;;;;;;5049365;28;20032;-64
2023/08/07 01:45:23;;;;;;;2.35;0.30;;;15.70;88.20;;;;;;5051442;28;20057;-64
2023/08/07 01:47:49;;;;;;;0.90;0.57;;;15.70;88.20;;;;;;5055931;28;20033;-64
2023/08/07 01:50:15;;;;;;;1.30;0.90;;;15.70;87.90;;;;;;5033807;28;20029;-64
2023/08/07 01:52:40;;;;;;;0.65;0.55;;;15.70;88.00;;;;;;5052939;28;20064;-65
2023/08/07 01:55:06;;;;;;;1.92;0.70;;;15.70;88.00;;;;;;5050478;28;20048;-64
2023/08/07 01:57:32;;;;;;;4.47;1.33;;;15.70;88.00;;;;;;5047481;28;20029;-64
2023/08/07 01:59:58;;;;;;;5.13;0.82;;;15.70;88.10;;;;;;5040508;28;20115;-65
2023/08/07 02:02:23;;;;;;;4.22;0.60;;;15.60;87.90;;;;;;5044207;28;20029;-65
2023/08/07 02:04:49;;;;;;;1.67;0.98;;;15.60;88.00;;;;;;5044139;28;20068;-65
2023/08/07 02:07:15;;;;;;;0.57;0.52;;;15.60;88.00;;;;;;5049511;28;20024;-65
2023/08/07 02:09:40;;;;;;;0.68;0.40;;;15.70;88.00;;;;;;5040992;28;20079;-66
2023/08/07 02:12:06;;;;;;;6.07;1.13;;;15.70;87.90;;;;;;5048593;28;20037;-66
2023/08/07 02:14:32;;;;;;;1.75;0.70;;;15.70;87.80;;;;;;5044091;28;20040;-65
2023/08/07 02:16:58;;;;;;;1.40;0.73;;;15.70;87.80;;;;;;5044726;28;20034;-65
2023/08/07 02:19:23;;;;;;;1.05;0.50;;;15.70;87.80;;;;;;5048528;28;20041;-64
2023/08/07 02:21:49;;;;;;;1.17;0.57;;;15.70;87.90;;;;;;5074831;28;20032;-66
2023/08/07 02:24:15;;;;;;;2.80;1.23;;;15.70;87.90;;;;;;5048153;28;20486;-66
2023/08/07 02:26:41;;;;;;;2.33;1.13;;;15.70;88.50;;;;;;5048400;28;20039;-67
2023/08/07 02:29:08;;;;;;;1.77;1.00;;;15.70;87.90;;;;;;5043649;28;20116;-66
2023/08/07 02:31:34;;;;;;;1.38;0.80;;;15.70;87.90;;;;;;5045247;28;20037;-64
2023/08/07 02:34:00;;;;;;;2.28;0.77;;;15.70;87.80;;;;;;5049554;28;20087;-66
2023/08/07 02:36:25;;;;;;;1.48;1.02;;;15.70;87.80;;;;;;5044141;28;20033;-64
2023/08/07 02:38:51;;;;;;;1.00;0.52;;;15.70;87.80;;;;;;5052507;28;20093;-66
2023/08/07 02:41:17;;;;;;;2.33;0.93;;;15.70;88.00;;;;;;5040441;28;20037;-64
2023/08/07 02:43:43;;;;;;;0.73;0.50;;;15.70;87.90;;;;;;5046527;28;20510;-64
2023/08/07 02:46:08;;;;;;;3.45;0.80;;;15.80;87.90;;;;;;5042175;28;20059;-64
2023/08/07 02:48:34;;;;;;;1.02;0.60;;;15.70;87.90;;;;;;5045872;28;20021;-66
2023/08/07 02:51:00;;;;;;;2.22;0.93;;;15.70;87.90;;;;;;5043051;28;20404;-66
2023/08/07 02:53:25;;;;;;;2.67;0.63;;;15.70;88.10;;;;;;5046185;28;20025;-66
2023/08/07 02:55:51;;;;;;;0.88;0.70;;;15.70;88.20;;;;;;5048732;28;20405;-66
2023/08/07 02:58:17;;;;;;;1.90;0.57;;;15.70;88.20;;;;;;5038607;28;20028;-66
2023/08/07 03:00:43;;;;;;;4.43;1.20;;;15.70;88.10;;;;;;5041435;28;20025;-64
2023/08/07 03:03:09;;;;;;;5.32;1.10;;;15.70;88.20;;;;;;5040752;28;20029;-64
2023/08/07 03:05:35;;;;;;;1.13;0.80;;;15.60;88.30;;;;;;5029837;28;20507;-64
2023/08/07 03:08:00;;;;;;;1.52;0.85;;;15.60;88.40;;;;;;5043716;28;20052;-66
2023/08/07 03:10:26;;;;;;;1.52;1.23;;;15.60;88.40;;;;;;5045795;28;20071;-66
2023/08/07 03:12:52;;;;;;;1.92;1.02;;;15.50;88.40;;;;;;5045038;28;20033;-66
2023/08/07 03:15:17;;;;;;;1.13;0.82;;;15.60;88.50;;;;;;5038725;28;20036;-66
2023/08/07 03:17:43;;;;;;;4.68;1.05;;;15.60;88.40;;;;;;5049605;28;20108;-64
2023/08/07 03:20:09;;;;;;;2.40;1.38;;;15.60;88.40;;;;;;5044932;28;20400;-66
2023/08/07 03:22:35;;;;;;;2.38;0.93;;;15.60;88.40;;;;;;5038544;28;20034;-64
2023/08/07 03:25:01;;;;;;;1.45;0.70;;;15.60;88.30;;;;;;5041928;28;20047;-64
2023/08/07 03:27:26;;;;;;;2.88;0.80;;;15.60;88.40;;;;;;5044939;28;20436;-65
2023/08/07 03:29:52;;;;;;;3.03;1.38;;;15.60;88.40;;;;;;5037281;28;20064;-65
2023/08/07 03:32:18;;;;;;;1.05;0.65;;;15.50;88.40;;;;;;5032303;28;20032;-66
2023/08/07 03:34:44;;;;;;;1.73;0.60;;;15.50;88.50;;;;;;5047895;28;20012;-64
2023/08/07 03:37:10;;;;;;;2.60;0.70;;;15.50;88.60;;;;;;5042361;28;20028;-64
2023/08/07 03:39:35;;;;;;;2.08;0.60;;;15.50;88.60;;;;;;5041816;28;20459;-65
2023/08/07 03:42:01;;;;;;;1.35;0.82;;;15.50;88.60;;;;;;5044323;28;20029;-66
2023/08/07 03:44:26;;;;;;;2.47;0.68;;;15.60;88.50;;;;;;5048566;28;20040;-64
2023/08/07 03:46:55;;;;;;;0.55;0.45;;;15.60;88.40;;;;;;5042757;28;20033;-64
2023/08/07 03:49:21;;;;;;;1.88;0.98;;;15.60;88.40;;;;;;5041291;28;20076;-64
2023/08/07 03:51:47;;;;;;;3.90;1.00;;;15.60;88.50;;;;;;5043652;28;20032;-66
2023/08/07 03:54:12;;;;;;;2.67;0.60;;;15.60;88.60;;;;;;5050741;28;20456;-65
2023/08/07 03:56:38;;;;;;;5.20;1.10;;;15.60;88.60;;;;;;5037941;28;20485;-64
2023/08/07 03:59:04;;;;;;;1.05;0.60;;;15.50;88.60;;;;;;5042910;28;20029;-64
2023/08/07 04:01:29;;;;;;;1.05;0.95;;;15.50;88.60;;;;;;5043115;28;20489;-66
2023/08/07 04:03:56;;;;;;;2.15;1.30;;;15.50;88.70;;;;;;5046456;28;20045;-66
2023/08/07 04:06:22;;;;;;;1.83;0.70;;;15.50;88.70;;;;;;5042428;28;20451;-64
2023/08/07 04:08:48;;;;;;;3.83;1.27;;;15.50;88.90;;;;;;5039515;28;20057;-65
2023/08/07 04:11:13;;;;;;;5.30;1.73;;;15.50;89.00;;;;;;5051471;28;20021;-65
2023/08/07 04:13:39;;;;;;;4.00;0.90;;;15.50;89.10;;;;;;5037784;28;20025;-64
2023/08/07 04:16:05;;;;;;;1.33;1.20;;;15.50;89.10;;;;;;5041674;28;20021;-66
2023/08/07 04:18:33;;;;;;;2.63;0.70;;;15.50;89.10;;;;;;5038464;28;20472;-65
2023/08/07 04:21:00;;;;;;;1.60;0.70;;;15.50;89.00;;;;;;5040094;28;20472;-66
2023/08/07 04:23:25;;;;;;;1.67;0.68;;;15.50;89.00;;;;;;5043524;28;20040;-65
2023/08/07 04:25:52;;;;;;;0.80;0.80;;;15.50;89.00;;;;;;5044164;28;20033;-65
2023/08/07 04:28:18;;;;;;;1.17;0.65;;;15.50;89.00;;;;;;5039919;28;20392;-65
2023/08/07 04:30:45;;;;;;;0.90;0.68;;;15.50;88.90;;;;;;5040074;28;20452;-64
2023/08/07 04:33:11;;;;;;;0.60;0.57;;;15.50;88.90;;;;;;5035618;28;20035;-65
2023/08/07 04:35:36;;;;;;;0.40;0.32;;;15.50;89.00;;;;;;5039070;28;20032;-66
2023/08/07 04:38:03;;;;;;;0.82;0.50;;;15.60;88.90;;;;;;5041392;28;20029;-66
2023/08/07 04:40:29;;;;;;;1.33;0.77;;;15.60;88.80;;;;;;5045762;28;20040;-64
2023/08/07 04:42:56;;;;;;;2.60;0.57;;;15.60;88.90;;;;;;5042285;28;20033;-66
2023/08/07 04:45:22;;;;;;;0.60;0.30;;;15.60;89.00;;;;;;5044489;28;20033;-64
2023/08/07 04:47:48;;;;;;;1.20;0.70;;;15.60;89.00;;;;;;5044086;28;20029;-66
2023/08/07 04:50:13;;;;;;;2.03;0.52;;;15.60;88.90;;;;;;5043416;28;20029;-66
2023/08/07 04:52:39;;;;;;;2.17;0.77;;;15.60;88.90;;;;;;5040111;28;20033;-65
2023/08/07 04:55:05;;;;;;;2.13;0.85;;;15.60;88.90;;;;;;5040599;28;20492;-64
2023/08/07 04:57:31;;;;;;;2.50;0.40;;;15.60;89.00;;;;;;5044151;28;20095;-65
2023/08/07 04:59:56;;;;;;;1.08;0.75;;;15.60;89.10;;;;;;5049319;28;20041;-65
2023/08/07 05:02:22;;;;;;;0.45;0.45;;;15.60;89.30;;;;;;5044297;28;20518;-66
2023/08/07 05:04:48;;;;;;;5.00;1.08;;;15.60;89.40;;;;;;5040789;28;20566;-65
2023/08/07 05:07:13;;;;;;;1.85;0.93;;;15.60;89.40;;;;;;5032747;28;20025;-65
2023/08/07 05:09:39;;;;;;;1.23;0.73;;;15.60;89.40;;;;;;5046515;28;20464;-66
2023/08/07 05:12:06;;;;;;;5.25;1.08;;;15.60;89.40;;;;;;5039682;28;20491;-66
2023/08/07 05:14:32;;;;;;;1.88;0.82;;;15.60;89.50;;;;;;5037491;28;20028;-65
2023/08/07 05:17:00;;;;;;;2.65;0.80;;;15.60;89.50;;;;;;5039550;28;20057;-65
2023/08/07 05:19:26;;;;;;;1.38;0.50;;;15.60;89.50;;;;;;5043496;28;20033;-65
2023/08/07 05:21:52;;;;;;;1.55;1.00;;;15.60;89.50;;;;;;5040734;28;20382;-66
2023/08/07 05:24:18;;;;;;;1.23;0.70;;;15.70;89.50;;;;;;5040467;28;20083;-65
2023/08/07 05:26:44;;;;;;;4.93;0.90;;;15.70;89.40;;;;;;5045703;28;20043;-65
2023/08/07 05:29:10;;;;;;;2.25;0.70;;;15.70;89.30;;;;;;5043737;28;20025;-65
2023/08/07 05:31:36;;;;;;;0.82;0.63;;;15.80;89.30;;;;;;5039549;28;20103;-66
2023/08/07 05:34:01;;;;;;;2.40;0.90;;;15.80;89.20;;;;;;5046320;28;20030;-65
2023/08/07 05:36:28;;;;;;;0.85;0.77;;;15.80;89.30;;;;;;5036134;28;20037;-65
2023/08/07 05:38:54;;;;;;;0.50;0.50;;;15.80;89.30;;;;;;5039801;28;20072;-65
2023/08/07 05:41:20;;;;;;;0.68;0.63;;;15.80;89.20;;;;;;5044455;28;20072;-66
2023/08/07 05:43:46;;;;;;;1.35;1.00;;;15.80;89.20;;;;;;5044841;28;20047;-66
2023/08/07 05:46:11;;;;;;;1.88;0.88;;;15.80;89.30;;;;;;5042326;28;20083;-65
2023/08/07 05:48:37;;;;;;;2.85;0.95;;;15.80;89.90;;;;;;5051453;28;20506;-67
2023/08/07 05:51:03;;;;;;;1.25;0.70;;;15.80;89.30;;;;;;5049570;28;20481;-71
2023/08/07 05:53:29;;;;;;;1.95;0.55;;;15.90;89.90;;;;;;5047870;28;20787;-71
2023/08/07 05:55:55;;;;;;;1.00;0.90;;;15.90;89.30;;;;;;5046517;28;20025;-72
2023/08/07 05:58:21;;;;;;;1.23;0.73;;;15.90;89.40;;;;;;5048355;28;20036;-67
2023/08/07 06:00:47;;;;;;;2.10;0.90;;;15.90;89.40;;;;;;5049694;28;20056;-67
2023/08/07 06:03:12;;;;;;;2.08;0.65;;;15.90;89.40;;;;;;5042088;28;20042;-66
2023/08/07 06:05:38;;;;;;;1.15;0.70;;;16.00;89.30;;;;;;5049819;28;20059;-66
2023/08/07 06:08:04;;;;;;;1.35;1.02;;;16.00;89.30;;;;;;5045263;28;20086;-71
2023/08/07 06:10:30;;;;;;;1.30;1.00;;;16.10;89.20;;;;;;5049611;28;20539;-69
2023/08/07 06:12:56;;;;;;;1.63;1.10;;;16.10;89.10;;;;;;5045616;28;20067;-71
2023/08/07 06:15:21;;;;;;;2.88;0.65;;;16.10;89.00;;;;;;5042928;28;20044;-70
2023/08/07 06:17:47;;;;;;;1.50;0.63;;;16.20;89.00;;;;;;5048596;28;20017;-70
2023/08/07 06:20:14;;;;;;;1.65;0.82;;;16.10;88.90;;;;;;5054024;28;20035;-70
2023/08/07 06:22:40;;;;;;;4.85;1.33;;;16.10;88.90;;;;;;5041234;28;20458;-70
2023/08/07 06:25:06;;;;;;;4.13;0.90;;;16.10;88.90;;;;;;5048177;28;20055;-71
2023/08/07 06:27:32;;;;;;;0.95;0.85;;;16.20;89.00;;;;;;5035681;28;20511;-65
2023/08/07 06:29:58;;;;;;;1.13;1.00;;;16.30;88.90;;;;;;5046331;28;20060;-71
2023/08/07 06:32:26;;;;;;;4.65;1.50;;;16.30;88.70;;;;;;5034515;28;20104;-65
2023/08/07 06:34:52;;;;;;;0.55;0.52;;;16.30;88.60;;;;;;5041324;28;20036;-67
2023/08/07 06:37:18;;;;;;;2.50;0.55;;;16.30;88.60;;;;;;5045983;28;20079;-67
2023/08/07 06:39:46;;;;;;;2.20;0.65;;;16.40;88.50;;;;;;5049371;28;20048;-65
2023/08/07 06:42:12;;;;;;;2.75;1.08;;;16.40;88.40;;;;;;5045326;28;20475;-69
2023/08/07 06:44:38;;;;;;;3.45;1.25;;;16.50;88.10;;;;;;5037754;28;20108;-64
2023/08/07 06:47:03;;;;;;;6.07;1.15;;;16.50;88.10;;;;;;5039163;28;20033;-73
2023/08/07 06:49:31;;;;;;;3.50;0.85;;;16.50;88.10;;;;;;5044267;28;20053;-74
2023/08/07 06:51:58;;;;;;;2.60;1.25;;;16.50;88.10;;;;;;5045553;28;20036;-73
2023/08/07 06:54:24;;;;;;;4.10;1.48;;;16.50;88.80;;;;;;5040919;28;20128;-65
2023/08/07 06:56:49;;;;;;;9.55;1.70;;;16.50;88.10;;;;;;5041153;28;20594;-70
2023/08/07 06:59:15;;;;;;;4.13;1.35;;;16.50;88.20;;;;;;5043029;28;20059;-66
2023/08/07 07:01:41;;;;;;;1.77;1.00;;;16.60;88.10;;;;;;5041634;28;20037;-65
2023/08/07 07:04:06;;;;;;;1.80;0.90;;;16.70;88.00;;;;;;5042400;28;20033;-67
2023/08/07 07:06:32;;;;;;;1.65;1.02;;;16.80;87.90;;;;;;5029679;28;20044;-71
2023/08/07 07:08:58;;;;;;;2.05;1.30;;;16.80;87.80;;;;;;5040431;28;20115;-65
2023/08/07 07:11:24;;;;;;;2.10;1.00;;;16.90;87.60;;;;;;5039212;28;20120;-66
2023/08/07 07:13:50;;;;;;;2.78;1.15;;;17.00;87.50;;;;;;5038815;28;20025;-70
2023/08/07 07:16:17;;;;;;;1.52;0.77;;;17.10;87.40;;;;;;5038924;28;20032;-71
2023/08/07 07:18:43;;;;;;;4.68;1.70;;;17.20;87.80;;;;;;5042431;28;20078;-64
2023/08/07 07:21:09;;;;;;;2.22;1.02;;;17.30;87.00;;;;;;5037844;28;20033;-64
2023/08/07 07:23:34;;;;;;;1.15;0.80;;;17.20;86.80;;;;;;5051976;28;20035;-64
2023/08/07 07:26:00;;;;;;;2.38;1.25;;;17.30;87.00;;;;;;5043262;28;20036;-67
2023/08/07 07:28:27;;;;;;;5.82;1.73;;;17.30;86.90;;;;;;5045089;28;20033;-67
2023/08/07 07:30:53;;;;;;;6.03;1.02;;;17.30;86.70;;;;;;5045848;28;20041;-64
2023/08/07 07:33:19;;;;;;;1.17;0.70;;;17.30;86.60;;;;;;5037570;28;20040;-64
2023/08/07 07:35:45;;;;;;;5.72;1.38;;;17.40;86.60;;;;;;5043365;28;20040;-67
2023/08/07 07:38:11;;;;;;;0.95;0.50;;;17.40;86.50;;;;;;5038790;28;20091;-67
2023/08/07 07:40:37;;;;;;;1.55;0.98;;;17.40;86.40;;;;;;5049373;28;20029;-67
2023/08/07 07:43:03;;;;;;;1.75;0.77;;;17.50;86.40;;;;;;5037285;28;20038;-64
2023/08/07 07:45:29;;;;;;;1.10;0.90;;;17.50;86.30;;;;;;5050190;28;20032;-67
2023/08/07 07:47:55;;;;;;;1.88;1.02;;;17.40;86.30;;;;;;5052460;28;20479;-67
2023/08/07 07:50:21;;;;;;;2.20;1.25;;;17.40;86.30;;;;;;5049887;28;20476;-67
2023/08/07 07:52:47;;;;;;;1.10;0.77;;;17.40;86.30;;;;;;5041413;28;20025;-64
2023/08/07 07:55:13;;;;;;;1.67;1.10;;;17.50;86.20;;;;;;5038925;28;20036;-64
2023/08/07 07:57:40;;;;;;;5.70;1.70;;;17.60;86.00;;;;;;5040477;28;20396;-64
2023/08/07 08:00:10;;;;;;;5.60;1.42;;;17.70;85.50;;;;;;5055003;28;20032;-65
2023/08/07 08:02:36;;;;;;;0.98;0.77;;;17.80;85.30;;;;;;5041826;28;20460;-64
2023/08/07 08:05:02;;;;;;;1.15;0.82;;;17.90;84.50;;;;;;5048175;28;20167;-68
2023/08/07 08:07:28;;;;;;;2.00;0.77;;;17.90;84.20;;;;;;5046124;28;20112;-67
2023/08/07 08:09:53;;;;;;;3.47;1.63;;;17.90;84.20;;;;;;5028485;28;20032;-68
2023/08/07 08:12:19;;;;;;;1.98;1.08;;;17.80;84.40;;;;;;5045868;28;20039;-65
2023/08/07 08:14:45;;;;;;;5.13;1.67;;;17.70;84.00;;;;;;5028499;28;20448;-66
2023/08/07 08:17:10;;;;;;;5.35;1.02;;;17.50;84.50;;;;;;5032931;28;20392;-67
2023/08/07 08:19:36;;;;;;;2.65;0.63;;;17.40;84.70;;;;;;5031748;28;20068;-66
2023/08/07 08:22:02;;;;;;;0.93;0.68;;;17.30;84.60;;;;;;5033626;28;20064;-65
2023/08/07 08:24:27;;;;;;;0.85;0.82;;;17.20;84.80;;;;;;5041491;28;20037;-64
2023/08/07 08:26:53;;;;;;;2.78;1.10;;;17.20;85.20;;;;;;5041725;28;20111;-64
2023/08/07 08:29:18;;;;;;;4.10;1.30;;;17.20;85.20;;;;;;5043012;28;20095;-66
2023/08/07 08:31:44;;;;;;;6.00;1.15;;;17.30;85.10;;;;;;5028421;28;20053;-67
2023/08/07 08:34:10;;;;;;;1.52;1.23;;;17.40;85.10;;;;;;5027173;28;20034;-66
2023/08/07 08:36:35;;;;;;;4.47;1.00;;;17.60;85.20;;;;;;5028326;28;20111;-64
2023/08/07 08:39:01;;;;;;;3.90;1.45;;;17.70;85.00;;;;;;5037779;28;20033;-67
2023/08/07 08:41:28;;;;;;;1.98;0.85;;;17.80;84.80;;;;;;5032263;28;20034;-67
2023/08/07 08:43:55;;;;;;;3.40;1.15;;;17.90;84.60;;;;;;5045234;28;20025;-67
2023/08/07 08:46:23;;;;;;;5.20;1.60;;;18.10;83.90;;;;;;5045067;28;20021;-66
2023/08/07 08:48:56;;;;;;;1.67;0.70;;;18.20;83.50;;;;;;5051758;28;20108;-67
2023/08/07 08:51:24;;;;;;;2.50;1.30;;;18.40;83.50;;;;;;5041810;28;20025;-64
2023/08/07 08:53:56;;;;;;;4.45;1.70;;;18.50;82.80;;;;;;5047790;28;20029;-64
2023/08/07 08:56:23;;;;;;;2.92;1.52;;;18.60;81.10;;;;;;5042030;28;20033;-65
2023/08/07 08:58:50;;;;;;;1.05;0.95;;;18.50;80.90;;;;;;5048810;28;20094;-65
2023/08/07 09:01:17;;;;;;;5.38;1.20;;;18.30;80.60;;;;;;5049234;28;20062;-64
2023/08/07 09:03:45;;;;;;;3.38;1.48;;;18.10;81.30;;;;;;5051276;28;20801;-65
2023/08/07 09:06:12;;;;;;;4.68;1.23;;;17.90;81.60;;;;;;5027095;28;20732;-66
2023/08/07 09:08:41;;;;;;;1.48;1.05;;;17.80;81.90;;;;;;5025731;28;20036;-67
2023/08/07 09:11:08;;;;;;;2.25;1.50;;;17.70;82.20;;;;;;5023732;28;20018;-70
2023/08/07 09:13:36;;;;;;;2.53;0.77;;;17.60;82.60;;;;;;5042987;28;20088;-69
2023/08/07 09:16:02;;;;;;;10.85;1.42;;;17.60;83.00;;;;;;5043096;28;20036;-70
2023/08/07 09:18:28;;;;;;;3.53;1.55;;;17.70;82.90;;;;;;5041740;28;20033;-68
2023/08/07 09:20:54;;;;;;;4.97;1.48;;;17.70;82.80;;;;;;5043911;28;20028;-71
2023/08/07 09:23:21;;;;;;;4.18;1.45;;;17.80;83.30;;;;;;5047757;28;20048;-67
2023/08/07 09:25:46;;;;;;;3.63;1.63;;;17.90;83.30;;;;;;5038878;28;20392;-68
2023/08/07 09:28:13;;;;;;;2.70;1.10;;;18.00;83.10;;;;;;5036999;28;20034;-68
2023/08/07 09:30:39;;;;;;;1.80;1.42;;;18.20;83.00;;;;;;5042098;28;20025;-67
2023/08/07 09:33:05;;;;;;;1.80;1.20;;;18.40;82.80;;;;;;5049653;28;20040;-65
2023/08/07 09:35:33;;;;;;;3.65;0.80;;;18.60;81.60;;;;;;5044700;28;20428;-63
2023/08/07 09:37:58;;;;;;;2.22;1.40;;;18.80;81.50;;;;;;5044586;28;20051;-63
2023/08/07 09:40:24;;;;;;;5.43;1.02;;;19.10;80.90;;;;;;5050077;28;20116;-68
2023/08/07 09:42:54;;;;;;;2.10;1.13;;;19.20;80.20;;;;;;5049193;28;20060;-67
2023/08/07 09:45:27;;;;;;;1.83;0.95;;;19.10;79.80;;;;;;5050073;28;20120;-66
2023/08/07 09:48:08;;;;;;;3.05;1.25;;;19.00;79.80;;;;;;5040589;28;20087;-67
2023/08/07 09:50:34;;;;;;;1.63;1.05;;;18.80;80.00;;;;;;5045447;28;20025;-66
2023/08/07 09:53:00;;;;;;;2.05;1.20;;;18.60;79.70;;;;;;5050709;28;20035;-67
2023/08/07 09:55:26;;;;;;;1.27;0.85;;;18.40;80.30;;;;;;5042117;28;20037;-66
2023/08/07 09:57:52;;;;;;;3.63;1.08;;;18.50;80.90;;;;;;5050549;28;20041;-67
2023/08/07 10:00:21;;;;;;;2.55;1.20;;;18.70;80.90;;;;;;5049666;28;20056;-67
2023/08/07 10:02:48;;;;;;;2.53;0.70;;;18.90;80.80;;;;;;5045909;28;20476;-64
2023/08/07 10:05:15;;;;;;;3.70;1.05;;;19.10;79.50;;;;;;5051648;28;20040;-64
2023/08/07 10:07:41;;;;;;;2.10;1.08;;;19.10;78.70;;;;;;5059641;28;20016;-64
2023/08/07 10:10:08;;;;;;;3.38;1.15;;;19.20;78.50;;;;;;5048797;28;20413;-64
2023/08/07 10:12:34;;;;;;;1.48;0.95;;;19.30;78.40;;;;;;5053769;28;20025;-64
2023/08/07 10:15:00;;;;;;;1.63;1.10;;;19.40;78.30;;;;;;5053327;28;20041;-67
2023/08/07 10:17:27;;;;;;;6.03;1.33;;;19.60;78.10;;;;;;5050631;28;20029;-68
2023/08/07 10:19:53;;;;;;;2.50;0.95;;;19.80;76.30;;;;;;5051145;28;20112;-67
2023/08/07 10:22:28;;;;;;;4.13;0.93;;;20.00;75.70;;;;;;5034803;28;20060;-68
2023/08/07 10:24:56;;;;;;;2.72;1.20;;;20.00;75.30;;;;;;5049538;28;20028;-63
2023/08/07 10:27:24;;;;;;;5.43;1.25;;;19.70;74.60;;;;;;5050998;28;20024;-68
2023/08/07 10:29:54;;;;;;;1.30;1.00;;;19.50;73.60;;;;;;5043558;28;20034;-63
2023/08/07 10:32:23;;;;;;;2.47;1.00;;;19.40;74.50;;;;;;5043715;28;20050;-68
2023/08/07 10:34:52;;;;;;;0.90;0.60;;;19.50;74.20;;;;;;5022767;28;20037;-68
2023/08/07 10:37:50;;;;;;;3.03;1.10;;;19.60;73.80;;;;;;5024082;28;20037;-63
2023/08/07 10:40:17;;;;;;;5.03;0.90;;;20.00;73.70;;;;;;5018840;28;20065;-63
2023/08/07 10:42:56;;;;;;;1.95;0.77;;;20.20;73.20;;;;;;5036146;28;20033;-64
2023/08/07 10:45:23;;;;;;;1.92;0.65;;;20.40;72.10;;;;;;5050192;28;20064;-64
2023/08/07 10:48:04;;;;;;;1.35;0.75;;;20.60;70.80;;;;;;5051107;28;20025;-63
2023/08/07 10:50:53;;;;;;;4.50;0.60;;;20.70;71.10;;;;;;5043100;28;20079;-63
2023/08/07 10:53:34;;;;;;;2.03;0.90;;;20.60;70.20;;;;;;5044730;28;20594;-69
2023/08/07 10:56:06;;;;;;;2.03;1.02;;;20.40;68.90;;;;;;5038615;28;20033;-69
2023/08/07 10:58:32;;;;;;;2.78;0.95;;;20.20;70.30;;;;;;5060246;28;20033;-69
2023/08/07 11:01:20;;;;;;;3.33;0.70;;;20.40;70.90;;;;;;5044545;28;20103;-69
2023/08/07 11:03:52;;;;;;;1.40;1.25;;;20.60;70.80;;;;;;5051905;28;20195;-63
2023/08/07 11:06:21;;;;;;;;;;;20.80;70.40;;;;;;5044829;28;20075;-63
2023/08/07 11:08:48;;;;;;;3.35;0.95;;;20.80;68.90;;;;;;5049356;28;19909;-69
2023/08/07 11:11:14;;;;;;;1.48;1.08;;;20.80;68.40;;;;;;5057818;28;20036;-69
2023/08/07 11:13:40;;;;;;;1.00;0.73;;;20.80;68.50;;;;;;5049758;28;20020;-68
2023/08/07 11:16:06;;;;;;;0.75;0.75;;;20.70;69.00;;;;;;5060143;28;20132;-69
2023/08/07 11:18:32;;;;;;;1.90;1.10;;;20.80;68.90;;;;;;5057493;28;20033;-63
2023/08/07 11:20:59;;;;;;;2.80;0.98;;;21.10;68.60;;;;;;5052168;28;20111;-64
2023/08/07 11:23:25;;;;;;;0.90;0.70;;;21.20;67.00;;;;;;5056286;28;20512;-63
2023/08/07 11:25:52;;;;;;;4.20;1.60;;;21.10;68.00;;;;;;5051307;28;20104;-63
2023/08/07 11:28:19;;;;;;;2.17;0.73;;;20.90;67.40;;;;;;5054601;28;20411;-63
2023/08/07 11:30:49;;;;;;;1.88;0.88;;;21.00;67.80;;;;;;5044239;28;20457;-63
2023/08/07 11:33:14;;;;;;;2.45;0.73;;;21.00;66.90;;;;;;5046718;28;20052;-63
2023/08/07 11:35:43;;;;;;;1.30;1.17;;;21.20;67.10;;;;;;5040321;28;20137;-63
2023/08/07 11:38:12;;;;;;;2.10;0.98;;;21.10;66.20;;;;;;5039956;28;20064;-63
2023/08/07 11:40:38;;;;;;;3.05;0.85;;;20.80;66.80;;;;;;5052296;28;20056;-63
2023/08/07 11:43:04;;;;;;;1.23;0.98;;;20.60;67.00;;;;;;5039193;28;20057;-68
2023/08/07 11:45:30;;;;;;;8.50;0.90;;;20.40;67.30;;;;;;5050102;28;20120;-68
2023/08/07 11:47:56;;;;;;;2.50;0.90;;;20.20;67.80;;;;;;5050504;28;20029;-69
2023/08/07 11:50:27;;;;;;;1.70;0.98;;;20.30;68.00;;;;;;5049992;28;20028;-63
2023/08/07 11:52:53;;;;;;;1.45;0.60;;;20.60;67.80;;;;;;5045442;28;20090;-63
2023/08/07 11:55:19;;;;;;;6.03;1.13;;;20.80;67.30;;;;;;5033104;28;20025;-63
2023/08/07 11:57:48;;;;;;;1.65;0.93;;;20.80;66.00;;;;;;5049647;28;20044;-63
2023/08/07 12:00:14;;;;;;;1.80;1.02;;;20.70;65.70;;;;;;5038605;28;20036;-63
2023/08/07 12:02:46;;;;;;;1.65;0.70;;;20.50;66.20;;;;;;5050003;28;20037;-68
2023/08/07 12:05:12;;;;;;;0.77;0.75;;;20.30;67.50;;;;;;5044047;28;20049;-68
2023/08/07 12:07:39;;;;;;;3.25;1.23;;;20.10;68.90;;;;;;5051456;28;20040;-68
2023/08/07 12:10:09;;;;;;;2.63;0.90;;;20.10;69.60;;;;;;5043357;28;20544;-63
2023/08/07 12:12:38;;;;;;;1.70;0.70;;;20.10;69.50;;;;;;5048520;28;20043;-64
2023/08/07 12:15:13;;;;;;;1.33;0.90;;;20.10;69.40;;;;;;5081399;28;20032;-63
2023/08/07 12:17:38;;;;;;;2.33;1.20;;;20.30;68.80;;;;;;5045042;28;20037;-69
2023/08/07 12:20:11;;;;;;;1.40;0.80;;;20.60;68.30;;;;;;5041568;28;20391;-64
2023/08/07 12:22:37;;;;;;;1.65;0.85;;;20.90;67.50;;;;;;5032523;28;20036;-69
2023/08/07 12:25:03;;;;;;;3.33;1.42;;;21.00;66.50;;;;;;5035714;28;20029;-69
2023/08/07 12:27:29;;;;;;;1.40;0.80;;;20.80;66.20;;;;;;5039384;28;20662;-69
2023/08/07 12:29:54;;;;;;;2.38;0.98;;;20.60;66.50;;;;;;5037868;28;20140;-69
2023/08/07 12:32:20;;;;;;;1.83;0.60;;;20.40;67.30;;;;;;5051152;28;20098;-69
2023/08/07 12:34:46;;;;;;;1.58;0.95;;;20.20;67.60;;;;;;5048621;28;20029;-69
2023/08/07 12:37:11;;;;;;;0.70;0.45;;;20.10;68.20;;;;;;5044593;28;20723;-63
2023/08/07 12:39:38;;;;;;;4.38;0.80;;;20.00;68.00;;;;;;5037953;28;20096;-63
2023/08/07 12:42:05;;;;;;;2.85;1.33;;;19.80;67.30;;;;;;5039973;28;20468;-69
2023/08/07 12:44:30;;;;;;;1.42;1.05;;;19.70;67.70;;;;;;5047031;28;20441;-63
2023/08/07 12:46:56;;;;;;;1.05;0.50;;;19.60;67.30;;;;;;5039756;28;20140;-63